createdAt,value
2023-03-18T00:02:28.958Z,79.00
2023-03-18T00:04:57.044Z,78.90
2023-03-18T00:07:24.952Z,79.30
2023-03-18T00:09:53.503Z,79.50
2023-03-18T00:12:22.240Z,79.70
2023-03-18T00:14:50.618Z,79.30
2023-03-18T00:17:19.488Z,79.10
2023-03-18T00:19:50.604Z,79.20
2023-03-18T00:22:19.825Z,79.40
2023-03-18T00:24:49.127Z,79.50
2023-03-18T00:27:17.339Z,79.70
2023-03-18T00:29:46.022Z,80.00
2023-03-18T00:32:14.682Z,80.20
2023-03-18T00:34:42.934Z,80.30
2023-03-18T00:37:18.861Z,80.30
2023-03-18T00:39:47.168Z,80.50
2023-03-18T00:42:15.855Z,80.70
2023-03-18T00:44:45.131Z,81.20
2023-03-18T00:47:13.221Z,81.20
2023-03-18T00:49:41.795Z,81.30
2023-03-18T00:52:09.967Z,81.50
2023-03-18T00:54:39.577Z,81.50
2023-03-18T00:57:08.047Z,81.90
2023-03-18T00:59:36.138Z,82.00
2023-03-18T01:02:04.196Z,82.00
2023-03-18T01:04:32.637Z,82.20
2023-03-18T01:07:01.300Z,82.50
2023-03-18T01:09:29.277Z,82.90
2023-03-18T01:11:58.773Z,83.30
2023-03-18T01:14:26.817Z,83.10
2023-03-18T01:16:54.838Z,83.40
2023-03-18T01:19:23.814Z,83.90
2023-03-18T01:21:51.828Z,84.30
2023-03-18T01:24:19.942Z,84.60
2023-03-18T01:26:48.154Z,84.80
2023-03-18T01:29:17.780Z,85.20
2023-03-18T01:31:46.669Z,85.30
2023-03-18T01:34:16.468Z,85.50
2023-03-18T01:36:44.992Z,85.70
2023-03-18T01:39:13.024Z,85.90
2023-03-18T01:41:41.471Z,86.30
2023-03-18T01:44:14.552Z,86.70
2023-03-18T01:46:45.919Z,87.20
2023-03-18T01:49:17.663Z,87.70
2023-03-18T01:51:50.355Z,87.90
2023-03-18T01:54:19.977Z,88.30
2023-03-18T01:56:49.453Z,88.20
2023-03-18T01:59:17.781Z,88.50
2023-03-18T02:01:53.134Z,88.90
2023-03-18T02:04:23.913Z,88.90
2023-03-18T02:06:51.912Z,89.80
2023-03-18T02:09:20.250Z,89.20
2023-03-18T02:11:50.805Z,89.60
2023-03-18T02:14:21.661Z,89.60
2023-03-18T02:17:01.167Z,89.70
2023-03-18T02:19:43.657Z,89.90
2023-03-18T02:22:22.113Z,90.00
2023-03-18T02:25:01.405Z,90.10
2023-03-18T02:27:33.832Z,90.20
2023-03-18T02:30:06.456Z,90.40
2023-03-18T02:32:35.892Z,90.50
2023-03-18T02:35:08.545Z,90.50
2023-03-18T02:37:36.548Z,90.60
2023-03-18T02:40:16.068Z,90.60
2023-03-18T02:42:45.974Z,90.80
2023-03-18T02:45:31.768Z,90.80
2023-03-18T02:48:02.808Z,90.80
2023-03-18T02:50:31.099Z,90.90
2023-03-18T02:53:01.011Z,91.00
2023-03-18T02:55:29.091Z,90.90
2023-03-18T02:57:58.378Z,91.00
2023-03-18T03:00:26.516Z,91.20
2023-03-18T03:02:54.793Z,91.20
2023-03-18T03:05:22.959Z,91.10
2023-03-18T03:07:51.783Z,91.10
2023-03-18T03:10:20.070Z,91.30
2023-03-18T03:12:48.217Z,91.50
2023-03-18T03:15:17.563Z,91.70
2023-03-18T03:17:45.518Z,91.80
2023-03-18T03:20:13.995Z,92.00
2023-03-18T03:22:42.604Z,92.10
2023-03-18T03:25:11.580Z,92.40
2023-03-18T03:27:39.665Z,92.30
2023-03-18T03:30:11.369Z,92.30
2023-03-18T03:32:40.968Z,92.60
2023-03-18T03:35:13.143Z,92.80
2023-03-18T03:37:41.221Z,92.90
2023-03-18T03:40:10.401Z,93.00
2023-03-18T03:42:38.502Z,93.00
2023-03-18T03:45:07.630Z,93.10
2023-03-18T03:47:36.246Z,93.20
2023-03-18T03:50:07.072Z,93.30
2023-03-18T03:52:35.134Z,93.40
2023-03-18T03:55:04.221Z,93.90
2023-03-18T03:57:32.301Z,93.50
2023-03-18T04:00:00.474Z,93.40
2023-03-18T04:02:28.821Z,93.50
2023-03-18T04:04:56.946Z,93.50
2023-03-18T04:07:26.242Z,93.60
2023-03-18T04:09:56.036Z,93.70
2023-03-18T04:12:24.342Z,93.80
2023-03-18T04:14:52.483Z,93.90
2023-03-18T04:17:20.331Z,93.90
2023-03-18T04:19:49.601Z,93.90
2023-03-18T04:22:18.285Z,94.00
2023-03-18T04:24:48.244Z,94.20
2023-03-18T04:27:16.705Z,94.20
2023-03-18T04:29:44.975Z,94.30
2023-03-18T04:32:12.974Z,94.20
2023-03-18T04:34:40.855Z,94.20
2023-03-18T04:37:10.128Z,94.30
2023-03-18T04:39:38.200Z,94.40
2023-03-18T04:42:08.020Z,94.40
2023-03-18T04:44:36.025Z,94.30
2023-03-18T04:47:03.986Z,94.40
2023-03-18T04:49:32.027Z,94.60
2023-03-18T04:51:59.954Z,94.80
2023-03-18T04:54:28.342Z,95.00
2023-03-18T04:56:56.485Z,95.20
2023-03-18T04:59:26.382Z,95.50
2023-03-18T05:01:54.356Z,95.80
2023-03-18T05:04:22.271Z,95.90
2023-03-18T05:06:50.625Z,95.80
2023-03-18T05:09:19.518Z,95.90
2023-03-18T05:11:47.742Z,96.00
2023-03-18T05:14:15.751Z,96.20
2023-03-18T05:16:45.489Z,96.50
2023-03-18T05:19:14.010Z,96.50
2023-03-18T05:21:42.304Z,96.50
2023-03-18T05:24:10.829Z,96.60
2023-03-18T05:26:39.136Z,96.70
2023-03-18T05:29:07.059Z,97.00
2023-03-18T05:31:35.223Z,97.10
2023-03-18T05:34:04.540Z,97.10
2023-03-18T05:36:33.074Z,97.10
2023-03-18T05:39:01.070Z,97.20
2023-03-18T05:41:28.960Z,97.20
2023-03-18T05:43:57.312Z,97.40
2023-03-18T05:46:25.218Z,97.50
2023-03-18T05:48:53.207Z,97.60
2023-03-18T05:51:22.629Z,97.50
2023-03-18T05:53:50.913Z,97.60
2023-03-18T05:56:19.043Z,97.60
2023-03-18T05:58:46.933Z,97.70
2023-03-18T06:01:15.152Z,97.60
2023-03-18T06:03:43.125Z,97.50
2023-03-18T06:06:11.440Z,97.50
2023-03-18T06:08:43.828Z,97.80
2023-03-18T06:11:12.286Z,97.70
2023-03-18T06:13:41.435Z,97.80
2023-03-18T06:16:09.806Z,97.80
2023-03-18T06:18:43.808Z,97.70
2023-03-18T06:21:12.098Z,97.40
2023-03-18T06:23:41.479Z,97.00
2023-03-18T06:26:10.056Z,96.70
2023-03-18T06:28:38.165Z,96.60
2023-03-18T06:31:06.373Z,96.30
2023-03-18T06:33:34.624Z,96.40
2023-03-18T06:36:03.015Z,96.40
2023-03-18T06:38:31.600Z,96.40
2023-03-18T06:41:02.039Z,96.40
2023-03-18T06:43:30.054Z,96.30
2023-03-18T06:45:59.655Z,96.30
2023-03-18T06:48:28.598Z,96.30
2023-03-18T06:50:56.684Z,96.00
2023-03-18T06:53:25.420Z,95.50
2023-03-18T06:55:54.071Z,94.50
2023-03-18T06:58:24.800Z,94.50
2023-03-18T07:00:53.210Z,93.90
2023-03-18T07:03:21.708Z,93.60
2023-03-18T07:05:51.173Z,93.30
2023-03-18T07:08:19.282Z,93.00
2023-03-18T07:10:47.314Z,92.80
2023-03-18T07:13:15.538Z,92.60
2023-03-18T07:15:45.564Z,92.70
2023-03-18T07:18:14.319Z,92.80
2023-03-18T07:20:43.321Z,93.00
2023-03-18T07:23:11.696Z,92.80
2023-03-18T07:25:39.736Z,92.80
2023-03-18T07:28:07.648Z,92.60
2023-03-18T07:30:36.699Z,92.40
2023-03-18T07:33:06.702Z,92.10
2023-03-18T07:35:35.309Z,92.00
2023-03-18T07:38:03.753Z,92.10
2023-03-18T07:40:31.790Z,91.80
2023-03-18T07:43:00.766Z,91.50
2023-03-18T07:45:29.241Z,91.20
2023-03-18T07:47:58.244Z,90.40
2023-03-18T07:50:27.950Z,88.20
2023-03-18T07:52:55.925Z,87.00
2023-03-18T07:55:24.426Z,85.50
2023-03-18T07:57:52.585Z,84.70
2023-03-18T08:00:22.414Z,84.30
2023-03-18T08:02:50.379Z,84.10
2023-03-18T08:05:19.309Z,83.60
2023-03-18T08:07:49.484Z,82.70
2023-03-18T08:10:17.713Z,82.10
2023-03-18T08:12:52.971Z,80.90
2023-03-18T08:15:22.257Z,79.60
2023-03-18T08:17:50.704Z,78.20
2023-03-18T08:20:18.932Z,76.60
2023-03-18T08:22:48.551Z,75.50
2023-03-18T08:25:16.957Z,74.20
2023-03-18T08:27:44.960Z,73.70
2023-03-18T08:30:15.127Z,71.20
2023-03-18T08:32:43.754Z,68.40
2023-03-18T08:35:13.352Z,66.70
2023-03-18T08:37:41.464Z,66.10
2023-03-18T08:40:13.425Z,65.00
2023-03-18T08:42:41.317Z,62.60
2023-03-18T08:45:11.104Z,61.20
2023-03-18T08:47:41.272Z,61.00
2023-03-18T08:50:11.797Z,60.00
2023-03-18T08:52:42.133Z,59.40
2023-03-18T08:55:13.193Z,58.50
2023-03-18T08:57:42.838Z,58.70
2023-03-18T09:00:12.860Z,58.00
2023-03-18T09:02:41.760Z,56.90
2023-03-18T09:05:10.134Z,55.50
2023-03-18T09:07:38.209Z,54.70
2023-03-18T09:10:07.089Z,53.80
2023-03-18T09:12:36.995Z,51.70
2023-03-18T09:15:06.297Z,49.30
2023-03-18T09:17:50.956Z,48.80
2023-03-18T09:21:15.139Z,47.30
2023-03-18T09:23:43.282Z,46.10
2023-03-18T09:26:11.822Z,44.70
2023-03-18T09:28:41.238Z,43.90
2023-03-18T09:31:09.462Z,43.40
2023-03-18T09:33:37.833Z,43.40
2023-03-18T09:36:06.437Z,42.70
2023-03-18T09:38:35.389Z,42.90
2023-03-18T09:41:09.138Z,42.10
2023-03-18T09:43:58.596Z,41.50
2023-03-18T09:46:34.649Z,40.90
2023-03-18T09:49:31.614Z,40.10
2023-03-18T09:52:09.671Z,39.60
2023-03-18T09:54:42.156Z,39.30
2023-03-18T09:57:17.274Z,38.80
2023-03-18T09:59:49.084Z,38.70
2023-03-18T10:02:23.377Z,37.60
2023-03-18T10:04:56.261Z,37.80
2023-03-18T10:07:28.575Z,36.90
2023-03-18T10:10:00.194Z,36.10
2023-03-18T10:12:33.201Z,35.70
2023-03-18T10:15:17.790Z,35.50
2023-03-18T10:17:52.458Z,34.70
2023-03-18T10:20:26.816Z,33.60
2023-03-18T10:23:12.817Z,33.50
2023-03-18T10:25:49.056Z,33.80
2023-03-18T10:28:42.596Z,33.90
2023-03-18T10:31:29.689Z,34.00
2023-03-18T10:34:00.409Z,33.90
2023-03-18T10:36:36.245Z,33.30
2023-03-18T10:39:04.805Z,33.00
2023-03-18T10:41:34.783Z,33.00
2023-03-18T10:44:04.919Z,32.80
2023-03-18T10:46:37.628Z,32.50
2023-03-18T10:49:11.136Z,32.60
2023-03-18T10:51:46.582Z,33.00
2023-03-18T10:54:20.942Z,33.40
2023-03-18T10:56:48.948Z,32.90
2023-03-18T10:59:19.300Z,33.60
2023-03-18T11:01:53.332Z,33.70
2023-03-18T11:04:23.964Z,34.00
2023-03-18T11:06:57.759Z,33.60
2023-03-18T11:09:32.206Z,33.60
2023-03-18T11:12:05.348Z,33.80
2023-03-18T11:14:34.758Z,33.50
2023-03-18T11:17:06.873Z,34.20
2023-03-18T11:19:39.963Z,34.60
2023-03-18T11:22:19.522Z,34.70
2023-03-18T11:24:48.961Z,35.00
2023-03-18T11:27:40.211Z,34.70
2023-03-18T11:30:33.556Z,34.90
2023-03-18T11:33:08.133Z,35.10
2023-03-18T11:35:41.980Z,35.20
2023-03-18T11:38:16.937Z,36.30
2023-03-18T11:40:46.063Z,35.00
2023-03-18T11:43:20.272Z,35.50
2023-03-18T11:45:53.306Z,36.00
2023-03-18T11:48:31.507Z,36.00
2023-03-18T11:51:13.382Z,36.60
2023-03-18T11:53:54.966Z,36.70
2023-03-18T11:56:28.475Z,37.10
2023-03-18T11:59:07.127Z,37.20
2023-03-18T12:01:45.514Z,36.90
2023-03-18T12:04:57.678Z,37.60
2023-03-18T12:07:41.675Z,37.60
2023-03-18T12:10:20.886Z,37.80
2023-03-18T12:12:59.667Z,38.10
2023-03-18T12:15:40.010Z,38.50
2023-03-18T12:18:22.728Z,39.20
2023-03-18T12:20:53.768Z,39.70
2023-03-18T12:23:51.419Z,40.30
2023-03-18T12:26:27.711Z,41.40
2023-03-18T12:29:26.647Z,41.90
2023-03-18T12:32:09.030Z,42.60
2023-03-18T12:34:58.506Z,43.80
2023-03-18T12:37:40.004Z,43.80
2023-03-18T12:40:45.235Z,44.40
2023-03-18T12:43:44.738Z,44.60
2023-03-18T12:46:23.301Z,45.00
2023-03-18T12:48:56.171Z,45.00
2023-03-18T12:51:32.149Z,44.60
2023-03-18T12:54:12.281Z,45.30
2023-03-18T12:56:45.647Z,45.60
2023-03-18T12:59:19.012Z,45.70
2023-03-18T13:02:00.408Z,45.60
2023-03-18T13:04:36.061Z,45.30
2023-03-18T13:07:18.370Z,45.80
2023-03-18T13:09:54.253Z,45.60
2023-03-18T13:12:26.007Z,45.20
2023-03-18T13:14:59.745Z,44.70
2023-03-18T13:17:33.432Z,45.10
2023-03-18T13:20:03.813Z,45.00
2023-03-18T13:23:06.321Z,44.90
2023-03-18T13:25:42.657Z,45.60
2023-03-18T13:28:34.510Z,45.00
2023-03-18T13:31:11.871Z,45.20
2023-03-18T13:34:10.719Z,44.70
2023-03-18T13:37:09.124Z,45.10
2023-03-18T13:40:00.470Z,45.40
2023-03-18T13:42:31.983Z,44.80
2023-03-18T13:45:13.063Z,44.80
2023-03-18T13:47:44.413Z,44.60
2023-03-18T13:50:32.471Z,44.70
2023-03-18T13:53:02.836Z,44.90
2023-03-18T13:55:34.854Z,44.90
2023-03-18T13:58:21.403Z,45.00
2023-03-18T14:01:17.789Z,45.30
2023-03-18T14:04:22.058Z,45.90
2023-03-18T14:06:56.623Z,45.70
2023-03-18T14:09:36.840Z,45.90
2023-03-18T14:12:42.982Z,45.70
2023-03-18T14:15:44.452Z,44.80
2023-03-18T14:18:27.846Z,45.10
2023-03-18T14:21:02.759Z,44.80
2023-03-18T14:23:39.145Z,44.70
2023-03-18T14:26:19.392Z,44.80
2023-03-18T14:28:56.635Z,45.20
2023-03-18T14:31:59.282Z,44.70
2023-03-18T14:34:31.219Z,44.90
2023-03-18T14:37:29.531Z,44.90
2023-03-18T14:40:08.922Z,45.10
2023-03-18T14:42:54.234Z,44.60
2023-03-18T14:45:29.347Z,44.90
2023-03-18T14:48:01.790Z,44.90
2023-03-18T14:50:49.846Z,44.30
2023-03-18T14:53:22.729Z,43.90
2023-03-18T14:55:55.139Z,44.50
2023-03-18T14:58:26.044Z,44.80
2023-03-18T15:00:56.503Z,43.60
2023-03-18T15:03:27.373Z,43.70
2023-03-18T15:05:58.514Z,43.80
2023-03-18T15:08:44.640Z,44.30
2023-03-18T15:11:16.834Z,44.50
2023-03-18T15:13:46.558Z,44.20
2023-03-18T15:16:18.618Z,43.80
2023-03-18T15:18:54.959Z,44.20
2023-03-18T15:21:27.618Z,44.40
2023-03-18T15:23:58.352Z,44.90
2023-03-18T15:26:31.097Z,45.70
2023-03-18T15:29:01.510Z,45.60
2023-03-18T15:31:31.888Z,46.00
2023-03-18T15:34:15.376Z,45.60
2023-03-18T15:36:44.936Z,45.40
2023-03-18T15:39:29.763Z,45.80
2023-03-18T15:41:58.733Z,45.60
2023-03-18T15:44:30.144Z,45.70
2023-03-18T15:47:07.540Z,45.80
2023-03-18T15:49:50.813Z,46.00
2023-03-18T15:52:18.972Z,46.30
2023-03-18T15:54:49.609Z,46.70
2023-03-18T15:57:27.167Z,47.80
2023-03-18T15:59:56.022Z,47.40
2023-03-18T16:02:24.460Z,47.40
2023-03-18T16:05:06.108Z,47.40
2023-03-18T16:07:34.328Z,47.70
2023-03-18T16:10:02.283Z,47.50
2023-03-18T16:12:32.388Z,47.60
2023-03-18T16:15:03.930Z,48.00
2023-03-18T16:17:33.271Z,48.10
2023-03-18T16:20:06.510Z,48.20
2023-03-18T16:22:35.531Z,48.70
2023-03-18T16:25:03.456Z,48.80
2023-03-18T16:27:38.516Z,49.10
2023-03-18T16:30:08.563Z,49.10
2023-03-18T16:32:37.347Z,49.20
2023-03-18T16:35:10.597Z,49.40
2023-03-18T16:37:38.712Z,49.80
2023-03-18T16:40:19.342Z,50.10
2023-03-18T16:42:49.469Z,50.40
2023-03-18T16:45:19.914Z,50.90
2023-03-18T16:47:50.554Z,50.70
2023-03-18T16:50:22.079Z,50.80
2023-03-18T16:52:51.281Z,51.20
2023-03-18T16:55:20.532Z,51.70
2023-03-18T16:57:51.560Z,51.90
2023-03-18T17:00:22.764Z,52.00
2023-03-18T17:02:53.719Z,52.40
2023-03-18T17:05:24.301Z,52.40
2023-03-18T17:07:52.935Z,52.30
2023-03-18T17:10:23.522Z,52.40
2023-03-18T17:12:55.958Z,52.90
2023-03-18T17:15:28.866Z,53.00
2023-03-18T17:17:58.704Z,53.10
2023-03-18T17:20:30.277Z,53.10
2023-03-18T17:22:58.292Z,53.20
2023-03-18T17:25:28.464Z,53.10
2023-03-18T17:27:58.730Z,53.20
2023-03-18T17:30:32.661Z,53.50
2023-03-18T17:33:01.298Z,53.60
2023-03-18T17:35:31.599Z,53.60
2023-03-18T17:37:59.918Z,53.80
2023-03-18T17:40:32.062Z,53.80
2023-03-18T17:43:01.255Z,54.00
2023-03-18T17:45:32.465Z,54.10
2023-03-18T17:48:16.089Z,54.40
2023-03-18T17:50:47.016Z,54.40
2023-03-18T17:53:26.121Z,54.60
2023-03-18T17:55:55.146Z,54.80
2023-03-18T17:58:26.021Z,55.00
2023-03-18T18:00:55.530Z,55.10
2023-03-18T18:03:26.688Z,55.40
2023-03-18T18:05:58.325Z,55.50
2023-03-18T18:08:27.093Z,56.00
2023-03-18T18:10:59.947Z,56.20
2023-03-18T18:13:28.088Z,56.30
2023-03-18T18:15:56.172Z,56.60
2023-03-18T18:18:25.495Z,56.70
2023-03-18T18:20:58.174Z,56.90
2023-03-18T18:23:29.121Z,57.00
2023-03-18T18:26:02.291Z,57.30
2023-03-18T18:28:34.766Z,57.60
2023-03-18T18:31:03.393Z,58.10
2023-03-18T18:33:32.758Z,58.50
2023-03-18T18:36:02.655Z,59.10
2023-03-18T18:38:31.272Z,59.60
2023-03-18T18:41:00.201Z,60.30
2023-03-18T18:43:28.781Z,61.00
2023-03-18T18:46:00.074Z,61.70
2023-03-18T18:48:30.920Z,62.20
2023-03-18T18:50:59.695Z,62.90
2023-03-18T18:53:31.078Z,63.30
2023-03-18T18:56:02.496Z,63.70
2023-03-18T18:58:32.650Z,64.20
2023-03-18T19:01:02.674Z,64.60
2023-03-18T19:03:32.163Z,64.90
2023-03-18T19:06:02.663Z,65.20
2023-03-18T19:08:34.835Z,65.40
2023-03-18T19:11:05.850Z,65.50
2023-03-18T19:13:35.410Z,65.70
2023-03-18T19:16:06.161Z,66.00
2023-03-18T19:18:38.683Z,66.10
2023-03-18T19:21:07.080Z,66.30
2023-03-18T19:23:37.042Z,66.70
2023-03-18T19:26:07.343Z,66.90
2023-03-18T19:28:58.928Z,66.90
2023-03-18T19:31:30.488Z,67.00
2023-03-18T19:34:00.447Z,67.20
2023-03-18T19:36:30.287Z,67.30
2023-03-18T19:39:01.391Z,67.50
2023-03-18T19:41:29.673Z,67.80
2023-03-18T19:44:01.854Z,68.10
2023-03-18T19:46:36.027Z,68.30
2023-03-18T19:49:04.217Z,68.50
2023-03-18T19:51:32.658Z,68.60
2023-03-18T19:54:02.902Z,69.00
2023-03-18T19:56:31.385Z,69.10
2023-03-18T19:59:00.039Z,69.20
2023-03-18T20:01:29.301Z,69.50
2023-03-18T20:03:59.262Z,69.60
2023-03-18T20:06:27.706Z,70.00
2023-03-18T20:08:55.686Z,70.10
2023-03-18T20:11:25.356Z,70.50
2023-03-18T20:13:54.621Z,70.70
2023-03-18T20:16:22.902Z,71.00
2023-03-18T20:18:51.613Z,71.30
2023-03-18T20:21:24.549Z,71.40
2023-03-18T20:23:53.944Z,71.70
2023-03-18T20:26:23.951Z,72.00
2023-03-18T20:28:55.523Z,72.20
2023-03-18T20:31:23.750Z,72.40
2023-03-18T20:33:52.044Z,72.80
2023-03-18T20:36:20.778Z,73.20
2023-03-18T20:38:51.320Z,73.40
2023-03-18T20:41:21.695Z,73.80
2023-03-18T20:43:52.541Z,74.00
2023-03-18T20:46:25.360Z,74.20
2023-03-18T20:48:54.062Z,74.60
2023-03-18T20:51:28.204Z,74.70
2023-03-18T20:53:56.279Z,75.00
2023-03-18T20:56:25.105Z,75.40
2023-03-18T20:58:56.239Z,75.60
2023-03-18T21:01:24.991Z,76.10
2023-03-18T21:03:53.189Z,76.40
2023-03-18T21:06:21.857Z,76.50
2023-03-18T21:08:49.934Z,76.80
2023-03-18T21:11:22.788Z,77.30
2023-03-18T21:13:51.286Z,77.60
2023-03-18T21:16:21.484Z,77.90
2023-03-18T21:18:50.074Z,79.10
2023-03-18T21:21:25.124Z,78.60
2023-03-18T21:23:54.643Z,78.90
2023-03-18T21:26:25.631Z,79.20
2023-03-18T21:28:56.801Z,79.60
2023-03-18T21:31:31.131Z,79.90
2023-03-18T21:33:59.010Z,80.30
2023-03-18T21:36:27.081Z,80.60
2023-03-18T21:38:55.133Z,80.80
2023-03-18T21:41:25.368Z,80.80
2023-03-18T21:43:53.259Z,81.10
2023-03-18T21:46:27.185Z,81.40
2023-03-18T21:48:55.958Z,81.80
2023-03-18T21:51:38.169Z,82.30
2023-03-18T21:54:18.495Z,82.20
2023-03-18T21:56:46.648Z,82.00
2023-03-18T21:59:14.836Z,82.10
2023-03-18T22:01:44.217Z,82.60
2023-03-18T22:04:13.069Z,82.50
2023-03-18T22:06:41.487Z,82.60
2023-03-18T22:09:10.846Z,82.70
2023-03-18T22:11:38.936Z,83.30
2023-03-18T22:14:06.988Z,83.70
2023-03-18T22:16:34.893Z,84.20
2023-03-18T22:19:04.370Z,85.60
2023-03-18T22:21:32.379Z,85.30
2023-03-18T22:24:00.655Z,85.40
2023-03-18T22:26:31.602Z,85.60
2023-03-18T22:28:59.532Z,86.00
2023-03-18T22:31:28.650Z,86.30
2023-03-18T22:33:58.522Z,86.70
2023-03-18T22:36:29.611Z,87.20
2023-03-18T22:38:57.639Z,87.50
2023-03-18T22:41:29.276Z,88.00
2023-03-18T22:43:57.909Z,88.30
2023-03-18T22:46:28.152Z,88.30
2023-03-18T22:48:56.176Z,88.60
2023-03-18T22:51:28.650Z,88.80
2023-03-18T22:53:57.026Z,89.40
2023-03-18T22:56:25.606Z,89.90
2023-03-18T22:58:54.553Z,90.40
2023-03-18T23:01:27.540Z,90.20
2023-03-18T23:03:55.851Z,90.30
2023-03-18T23:06:24.878Z,90.40
2023-03-18T23:08:54.234Z,90.50
2023-03-18T23:11:22.158Z,90.70
2023-03-18T23:13:52.141Z,91.00
2023-03-18T23:16:22.091Z,90.80
2023-03-18T23:18:51.135Z,90.90
2023-03-18T23:21:21.508Z,90.90
2023-03-18T23:23:50.604Z,91.10
2023-03-18T23:26:20.463Z,91.20
2023-03-18T23:28:48.978Z,91.30
2023-03-18T23:31:17.574Z,91.50
2023-03-18T23:33:47.235Z,91.60
2023-03-18T23:36:15.800Z,91.60
2023-03-18T23:38:44.107Z,91.60
2023-03-18T23:41:12.414Z,91.60
2023-03-18T23:43:41.844Z,91.80
2023-03-18T23:46:09.839Z,91.80
2023-03-18T23:48:37.793Z,92.00
2023-03-18T23:51:05.809Z,92.30
2023-03-18T23:53:33.723Z,92.40
2023-03-18T23:56:01.656Z,92.50
2023-03-18T23:58:29.640Z,92.60
